sensor_id;sensor_type;location;lat;lon;timestamp;temperature;humidity
25953;DHT22;13750;50.804;8.764;2023-04-03T00:00:19;5.90;60.20
25953;DHT22;13750;50.804;8.764;2023-04-03T00:03:06;5.80;60.10
25953;DHT22;13750;50.804;8.764;2023-04-03T00:05:52;5.80;60.20
25953;DHT22;13750;50.804;8.764;2023-04-03T00:08:18;5.80;60.30
25953;DHT22;13750;50.804;8.764;2023-04-03T00:10:44;5.80;60.30
25953;DHT22;13750;50.804;8.764;2023-04-03T00:13:09;5.80;60.50
25953;DHT22;13750;50.804;8.764;2023-04-03T00:15:36;5.80;60.60
25953;DHT22;13750;50.804;8.764;2023-04-03T00:18:02;5.80;60.40
25953;DHT22;13750;50.804;8.764;2023-04-03T00:20:29;5.70;60.50
25953;DHT22;13750;50.804;8.764;2023-04-03T00:22:54;5.70;60.50
25953;DHT22;13750;50.804;8.764;2023-04-03T00:25:20;5.70;60.60
25953;DHT22;13750;50.804;8.764;2023-04-03T00:27:46;5.70;60.80
25953;DHT22;13750;50.804;8.764;2023-04-03T00:30:15;5.70;60.80
25953;DHT22;13750;50.804;8.764;2023-04-03T00:32:41;5.70;60.80
25953;DHT22;13750;50.804;8.764;2023-04-03T00:35:08;5.60;61.00
25953;DHT22;13750;50.804;8.764;2023-04-03T00:37:33;5.60;61.10
25953;DHT22;13750;50.804;8.764;2023-04-03T00:39:59;5.60;61.20
25953;DHT22;13750;50.804;8.764;2023-04-03T00:42:25;5.60;61.20
25953;DHT22;13750;50.804;8.764;2023-04-03T00:47:23;5.50;61.50
25953;DHT22;13750;50.804;8.764;2023-04-03T00:49:49;5.50;61.60
25953;DHT22;13750;50.804;8.764;2023-04-03T00:52:19;5.50;61.70
25953;DHT22;13750;50.804;8.764;2023-04-03T00:54:47;5.50;61.80
25953;DHT22;13750;50.804;8.764;2023-04-03T00:57:14;5.50;61.90
25953;DHT22;13750;50.804;8.764;2023-04-03T00:59:46;5.40;62.10
25953;DHT22;13750;50.804;8.764;2023-04-03T01:02:13;5.40;62.20
25953;DHT22;13750;50.804;8.764;2023-04-03T01:04:41;5.40;62.20
25953;DHT22;13750;50.804;8.764;2023-04-03T01:07:13;5.40;62.20
25953;DHT22;13750;50.804;8.764;2023-04-03T01:09:40;5.40;62.30
25953;DHT22;13750;50.804;8.764;2023-04-03T01:12:27;5.30;62.30
25953;DHT22;13750;50.804;8.764;2023-04-03T01:14:58;5.30;62.50
25953;DHT22;13750;50.804;8.764;2023-04-03T01:17:39;5.30;62.70
25953;DHT22;13750;50.804;8.764;2023-04-03T01:25:32;5.20;62.80
25953;DHT22;13750;50.804;8.764;2023-04-03T01:27:58;5.20;62.90
25953;DHT22;13750;50.804;8.764;2023-04-03T01:30:28;5.20;63.00
25953;DHT22;13750;50.804;8.764;2023-04-03T01:32:55;5.20;62.80
25953;DHT22;13750;50.804;8.764;2023-04-03T01:35:20;5.20;62.80
25953;DHT22;13750;50.804;8.764;2023-04-03T01:37:46;5.10;62.80
25953;DHT22;13750;50.804;8.764;2023-04-03T01:40:12;5.10;62.90
25953;DHT22;13750;50.804;8.764;2023-04-03T01:42:37;5.10;62.90
25953;DHT22;13750;50.804;8.764;2023-04-03T01:45:03;5.10;62.90
25953;DHT22;13750;50.804;8.764;2023-04-03T01:47:29;5.10;62.70
25953;DHT22;13750;50.804;8.764;2023-04-03T01:49:54;5.00;62.60
25953;DHT22;13750;50.804;8.764;2023-04-03T01:52:20;5.00;62.60
25953;DHT22;13750;50.804;8.764;2023-04-03T01:54:45;5.00;62.50
25953;DHT22;13750;50.804;8.764;2023-04-03T01:57:11;4.90;62.50
25953;DHT22;13750;50.804;8.764;2023-04-03T01:59:38;4.90;62.50
25953;DHT22;13750;50.804;8.764;2023-04-03T02:02:04;4.90;62.60
25953;DHT22;13750;50.804;8.764;2023-04-03T02:04:29;4.90;62.60
25953;DHT22;13750;50.804;8.764;2023-04-03T02:06:55;4.80;62.50
25953;DHT22;13750;50.804;8.764;2023-04-03T02:09:20;4.80;62.40
25953;DHT22;13750;50.804;8.764;2023-04-03T02:11:46;4.80;62.30
25953;DHT22;13750;50.804;8.764;2023-04-03T02:14:12;4.80;62.40
25953;DHT22;13750;50.804;8.764;2023-04-03T02:16:38;4.80;62.40
25953;DHT22;13750;50.804;8.764;2023-04-03T02:19:03;4.70;62.50
25953;DHT22;13750;50.804;8.764;2023-04-03T02:21:29;4.70;62.60
25953;DHT22;13750;50.804;8.764;2023-04-03T02:23:55;4.70;62.60
25953;DHT22;13750;50.804;8.764;2023-04-03T02:26:20;4.70;62.70
25953;DHT22;13750;50.804;8.764;2023-04-03T02:28:46;4.60;62.80
25953;DHT22;13750;50.804;8.764;2023-04-03T02:31:12;4.60;62.80
25953;DHT22;13750;50.804;8.764;2023-04-03T02:33:38;4.50;62.80
25953;DHT22;13750;50.804;8.764;2023-04-03T02:36:08;4.50;62.80
25953;DHT22;13750;50.804;8.764;2023-04-03T02:38:33;4.50;62.80
25953;DHT22;13750;50.804;8.764;2023-04-03T02:41:07;4.50;62.80
25953;DHT22;13750;50.804;8.764;2023-04-03T02:43:33;4.40;62.70
25953;DHT22;13750;50.804;8.764;2023-04-03T02:45:59;4.40;62.80
25953;DHT22;13750;50.804;8.764;2023-04-03T02:48:24;4.40;62.70
25953;DHT22;13750;50.804;8.764;2023-04-03T02:50:51;4.30;62.70
25953;DHT22;13750;50.804;8.764;2023-04-03T02:53:16;4.30;62.80
25953;DHT22;13750;50.804;8.764;2023-04-03T02:55:42;4.30;62.80
25953;DHT22;13750;50.804;8.764;2023-04-03T02:58:08;4.20;62.80
25953;DHT22;13750;50.804;8.764;2023-04-03T03:00:34;4.20;62.80
25953;DHT22;13750;50.804;8.764;2023-04-03T03:02:59;4.10;62.80
25953;DHT22;13750;50.804;8.764;2023-04-03T03:05:26;4.10;62.70
25953;DHT22;13750;50.804;8.764;2023-04-03T03:07:52;4.10;62.70
25953;DHT22;13750;50.804;8.764;2023-04-03T03:10:18;4.00;62.70
25953;DHT22;13750;50.804;8.764;2023-04-03T03:12:43;4.00;62.60
25953;DHT22;13750;50.804;8.764;2023-04-03T03:15:09;3.90;62.60
25953;DHT22;13750;50.804;8.764;2023-04-03T03:17:35;3.90;62.80
25953;DHT22;13750;50.804;8.764;2023-04-03T03:20:02;3.90;63.00
25953;DHT22;13750;50.804;8.764;2023-04-03T03:22:28;3.90;63.00
25953;DHT22;13750;50.804;8.764;2023-04-03T03:24:53;3.80;63.10
25953;DHT22;13750;50.804;8.764;2023-04-03T03:27:20;3.90;63.20
25953;DHT22;13750;50.804;8.764;2023-04-03T03:29:46;3.80;63.30
25953;DHT22;13750;50.804;8.764;2023-04-03T03:32:11;3.80;63.50
25953;DHT22;13750;50.804;8.764;2023-04-03T03:34:37;3.80;63.50
25953;DHT22;13750;50.804;8.764;2023-04-03T03:37:03;3.70;63.40
25953;DHT22;13750;50.804;8.764;2023-04-03T03:39:28;3.70;63.60
25953;DHT22;13750;50.804;8.764;2023-04-03T03:41:54;3.70;63.60
25953;DHT22;13750;50.804;8.764;2023-04-03T03:44:20;3.60;63.70
25953;DHT22;13750;50.804;8.764;2023-04-03T03:46:46;3.60;63.80
25953;DHT22;13750;50.804;8.764;2023-04-03T03:49:11;3.60;63.90
25953;DHT22;13750;50.804;8.764;2023-04-03T03:51:38;3.60;63.90
25953;DHT22;13750;50.804;8.764;2023-04-03T03:54:04;3.50;64.10
25953;DHT22;13750;50.804;8.764;2023-04-03T03:56:30;3.50;64.20
25953;DHT22;13750;50.804;8.764;2023-04-03T03:58:56;3.50;64.30
25953;DHT22;13750;50.804;8.764;2023-04-03T04:01:23;3.40;64.40
25953;DHT22;13750;50.804;8.764;2023-04-03T04:03:48;3.40;64.50
25953;DHT22;13750;50.804;8.764;2023-04-03T04:06:14;3.30;64.60
25953;DHT22;13750;50.804;8.764;2023-04-03T04:08:40;3.30;64.70
25953;DHT22;13750;50.804;8.764;2023-04-03T04:11:06;3.20;64.90
25953;DHT22;13750;50.804;8.764;2023-04-03T04:13:32;3.20;65.00
25953;DHT22;13750;50.804;8.764;2023-04-03T04:15:58;3.20;65.20
25953;DHT22;13750;50.804;8.764;2023-04-03T04:18:23;3.10;65.40
25953;DHT22;13750;50.804;8.764;2023-04-03T04:20:50;3.10;65.40
25953;DHT22;13750;50.804;8.764;2023-04-03T04:23:16;3.10;65.60
25953;DHT22;13750;50.804;8.764;2023-04-03T04:25:44;3.00;65.60
25953;DHT22;13750;50.804;8.764;2023-04-03T04:28:10;3.00;65.80
25953;DHT22;13750;50.804;8.764;2023-04-03T04:30:36;3.00;66.00
25953;DHT22;13750;50.804;8.764;2023-04-03T04:33:01;2.90;66.00
25953;DHT22;13750;50.804;8.764;2023-04-03T04:35:27;2.90;66.10
25953;DHT22;13750;50.804;8.764;2023-04-03T04:37:52;2.90;66.30
25953;DHT22;13750;50.804;8.764;2023-04-03T04:40:18;2.90;66.50
25953;DHT22;13750;50.804;8.764;2023-04-03T04:42:44;2.80;66.60
25953;DHT22;13750;50.804;8.764;2023-04-03T04:45:09;2.80;66.70
25953;DHT22;13750;50.804;8.764;2023-04-03T04:47:35;2.80;66.80
25953;DHT22;13750;50.804;8.764;2023-04-03T04:50:01;2.80;66.90
25953;DHT22;13750;50.804;8.764;2023-04-03T04:52:26;2.70;67.10
25953;DHT22;13750;50.804;8.764;2023-04-03T04:54:52;2.70;67.20
25953;DHT22;13750;50.804;8.764;2023-04-03T04:57:17;2.70;67.20
25953;DHT22;13750;50.804;8.764;2023-04-03T04:59:43;2.70;67.30
25953;DHT22;13750;50.804;8.764;2023-04-03T05:02:08;2.60;67.50
25953;DHT22;13750;50.804;8.764;2023-04-03T05:04:34;2.70;67.70
25953;DHT22;13750;50.804;8.764;2023-04-03T05:07:00;2.60;67.70
25953;DHT22;13750;50.804;8.764;2023-04-03T05:09:25;2.60;67.80
25953;DHT22;13750;50.804;8.764;2023-04-03T05:11:51;2.60;68.00
25953;DHT22;13750;50.804;8.764;2023-04-03T05:14:20;2.60;68.10
25953;DHT22;13750;50.804;8.764;2023-04-03T05:16:46;2.60;68.20
25953;DHT22;13750;50.804;8.764;2023-04-03T05:19:11;2.60;68.20
25953;DHT22;13750;50.804;8.764;2023-04-03T05:21:37;2.50;68.30
25953;DHT22;13750;50.804;8.764;2023-04-03T05:24:03;2.50;68.40
25953;DHT22;13750;50.804;8.764;2023-04-03T05:26:30;2.50;68.60
25953;DHT22;13750;50.804;8.764;2023-04-03T05:28:55;2.50;68.70
25953;DHT22;13750;50.804;8.764;2023-04-03T05:31:21;2.50;68.80
25953;DHT22;13750;50.804;8.764;2023-04-03T05:33:47;2.50;68.80
25953;DHT22;13750;50.804;8.764;2023-04-03T05:36:15;2.50;68.90
25953;DHT22;13750;50.804;8.764;2023-04-03T05:38:41;2.50;69.00
25953;DHT22;13750;50.804;8.764;2023-04-03T05:41:06;2.50;69.00
25953;DHT22;13750;50.804;8.764;2023-04-03T05:43:32;2.40;69.00
25953;DHT22;13750;50.804;8.764;2023-04-03T05:45:59;2.50;69.10
25953;DHT22;13750;50.804;8.764;2023-04-03T05:48:25;2.40;69.10
25953;DHT22;13750;50.804;8.764;2023-04-03T05:50:51;2.40;69.30
25953;DHT22;13750;50.804;8.764;2023-04-03T05:53:29;2.40;69.30
25953;DHT22;13750;50.804;8.764;2023-04-03T05:55:58;2.40;69.30
25953;DHT22;13750;50.804;8.764;2023-04-03T05:58:24;2.40;69.40
25953;DHT22;13750;50.804;8.764;2023-04-03T06:00:49;2.40;69.50
25953;DHT22;13750;50.804;8.764;2023-04-03T06:03:15;2.40;69.70
25953;DHT22;13750;50.804;8.764;2023-04-03T06:05:42;2.40;69.90
25953;DHT22;13750;50.804;8.764;2023-04-03T06:08:07;2.40;69.90
25953;DHT22;13750;50.804;8.764;2023-04-03T06:10:36;2.50;69.90
25953;DHT22;13750;50.804;8.764;2023-04-03T06:13:02;2.50;70.00
25953;DHT22;13750;50.804;8.764;2023-04-03T06:15:28;2.60;70.00
25953;DHT22;13750;50.804;8.764;2023-04-03T06:17:53;2.60;69.90
25953;DHT22;13750;50.804;8.764;2023-04-03T06:20:19;2.60;69.80
25953;DHT22;13750;50.804;8.764;2023-04-03T06:22:45;2.60;69.60
25953;DHT22;13750;50.804;8.764;2023-04-03T06:25:11;2.60;69.60
25953;DHT22;13750;50.804;8.764;2023-04-03T06:27:38;2.60;69.80
25953;DHT22;13750;50.804;8.764;2023-04-03T06:30:06;2.70;69.70
25953;DHT22;13750;50.804;8.764;2023-04-03T06:32:32;2.70;69.60
25953;DHT22;13750;50.804;8.764;2023-04-03T06:34:58;2.80;69.40
25953;DHT22;13750;50.804;8.764;2023-04-03T06:37:24;2.80;69.20
25953;DHT22;13750;50.804;8.764;2023-04-03T06:39:54;2.80;69.20
25953;DHT22;13750;50.804;8.764;2023-04-03T06:42:20;2.90;68.80
25953;DHT22;13750;50.804;8.764;2023-04-03T06:44:46;2.80;68.40
25953;DHT22;13750;50.804;8.764;2023-04-03T06:47:16;2.80;68.40
25953;DHT22;13750;50.804;8.764;2023-04-03T06:49:42;2.90;68.60
25953;DHT22;13750;50.804;8.764;2023-04-03T06:52:09;2.90;68.60
25953;DHT22;13750;50.804;8.764;2023-04-03T06:54:40;2.90;68.10
25953;DHT22;13750;50.804;8.764;2023-04-03T06:57:06;2.90;68.10
25953;DHT22;13750;50.804;8.764;2023-04-03T06:59:34;3.00;68.40
25953;DHT22;13750;50.804;8.764;2023-04-03T07:02:00;3.00;68.10
25953;DHT22;13750;50.804;8.764;2023-04-03T07:04:26;3.10;68.10
25953;DHT22;13750;50.804;8.764;2023-04-03T07:06:54;3.10;67.50
25953;DHT22;13750;50.804;8.764;2023-04-03T07:09:20;3.10;67.40
25953;DHT22;13750;50.804;8.764;2023-04-03T07:11:46;3.10;67.40
25953;DHT22;13750;50.804;8.764;2023-04-03T07:14:11;3.10;67.10
25953;DHT22;13750;50.804;8.764;2023-04-03T07:16:37;3.00;67.20
25953;DHT22;13750;50.804;8.764;2023-04-03T07:19:03;3.00;67.40
25953;DHT22;13750;50.804;8.764;2023-04-03T07:21:39;3.00;67.50
25953;DHT22;13750;50.804;8.764;2023-04-03T07:24:05;3.10;67.00
25953;DHT22;13750;50.804;8.764;2023-04-03T07:26:31;3.00;67.00
25953;DHT22;13750;50.804;8.764;2023-04-03T07:29:14;3.00;67.20
25953;DHT22;13750;50.804;8.764;2023-04-03T07:32:13;3.00;67.10
25953;DHT22;13750;50.804;8.764;2023-04-03T07:38:07;3.00;67.10
25953;DHT22;13750;50.804;8.764;2023-04-03T07:40:50;3.10;67.20
25953;DHT22;13750;50.804;8.764;2023-04-03T07:43:20;3.20;67.40
25953;DHT22;13750;50.804;8.764;2023-04-03T07:45:49;3.20;67.30
25953;DHT22;13750;50.804;8.764;2023-04-03T07:48:25;3.30;66.80
25953;DHT22;13750;50.804;8.764;2023-04-03T07:50:51;3.40;66.80
25953;DHT22;13750;50.804;8.764;2023-04-03T07:53:18;3.40;66.70
25953;DHT22;13750;50.804;8.764;2023-04-03T07:55:49;3.50;66.20
25953;DHT22;13750;50.804;8.764;2023-04-03T07:58:17;3.50;65.80
25953;DHT22;13750;50.804;8.764;2023-04-03T08:00:45;3.50;65.50
25953;DHT22;13750;50.804;8.764;2023-04-03T08:03:12;3.50;65.40
25953;DHT22;13750;50.804;8.764;2023-04-03T08:05:43;3.50;65.30
25953;DHT22;13750;50.804;8.764;2023-04-03T08:08:10;3.50;65.20
25953;DHT22;13750;50.804;8.764;2023-04-03T08:10:37;3.50;65.10
25953;DHT22;13750;50.804;8.764;2023-04-03T08:13:03;3.40;64.80
25953;DHT22;13750;50.804;8.764;2023-04-03T08:15:32;3.40;64.90
25953;DHT22;13750;50.804;8.764;2023-04-03T08:17:59;3.40;64.80
25953;DHT22;13750;50.804;8.764;2023-04-03T08:20:26;3.40;65.00
25953;DHT22;13750;50.804;8.764;2023-04-03T08:22:52;3.40;65.00
25953;DHT22;13750;50.804;8.764;2023-04-03T08:25:20;3.40;65.00
25953;DHT22;13750;50.804;8.764;2023-04-03T08:27:46;3.40;64.90
25953;DHT22;13750;50.804;8.764;2023-04-03T08:30:12;3.40;64.90
25953;DHT22;13750;50.804;8.764;2023-04-03T08:32:38;3.50;64.70
25953;DHT22;13750;50.804;8.764;2023-04-03T08:35:05;3.40;64.60
25953;DHT22;13750;50.804;8.764;2023-04-03T08:37:31;3.40;64.60
25953;DHT22;13750;50.804;8.764;2023-04-03T08:39:59;3.40;64.20
25953;DHT22;13750;50.804;8.764;2023-04-03T08:45:25;3.40;64.20
25953;DHT22;13750;50.804;8.764;2023-04-03T08:48:08;3.40;64.60
25953;DHT22;13750;50.804;8.764;2023-04-03T08:50:43;3.60;65.50
25953;DHT22;13750;50.804;8.764;2023-04-03T08:53:18;3.60;65.50
25953;DHT22;13750;50.804;8.764;2023-04-03T08:55:51;3.70;65.60
25953;DHT22;13750;50.804;8.764;2023-04-03T08:58:21;3.80;65.60
25953;DHT22;13750;50.804;8.764;2023-04-03T09:00:57;3.80;65.20
25953;DHT22;13750;50.804;8.764;2023-04-03T09:03:24;3.90;65.10
25953;DHT22;13750;50.804;8.764;2023-04-03T09:05:54;4.00;65.20
25953;DHT22;13750;50.804;8.764;2023-04-03T09:08:32;4.10;64.40
25953;DHT22;13750;50.804;8.764;2023-04-03T09:13:46;4.30;64.10
25953;DHT22;13750;50.804;8.764;2023-04-03T09:21:48;4.60;62.50
25953;DHT22;13750;50.804;8.764;2023-04-03T09:24:15;4.60;62.50
25953;DHT22;13750;50.804;8.764;2023-04-03T09:26:51;4.70;62.10
25953;DHT22;13750;50.804;8.764;2023-04-03T09:29:21;4.80;60.70
25953;DHT22;13750;50.804;8.764;2023-04-03T09:31:50;4.80;60.10
25953;DHT22;13750;50.804;8.764;2023-04-03T09:34:35;4.90;59.60
25953;DHT22;13750;50.804;8.764;2023-04-03T09:37:02;4.90;59.20
25953;DHT22;13750;50.804;8.764;2023-04-03T09:39:33;5.00;58.50
25953;DHT22;13750;50.804;8.764;2023-04-03T09:42:24;5.00;57.80
25953;DHT22;13750;50.804;8.764;2023-04-03T09:44:56;5.00;57.10
25953;DHT22;13750;50.804;8.764;2023-04-03T09:47:33;4.90;57.10
25953;DHT22;13750;50.804;8.764;2023-04-03T09:52:35;5.00;56.60
25953;DHT22;13750;50.804;8.764;2023-04-03T09:55:25;5.00;56.90
25953;DHT22;13750;50.804;8.764;2023-04-03T09:58:04;5.10;56.60
25953;DHT22;13750;50.804;8.764;2023-04-03T10:00:38;5.10;56.50
25953;DHT22;13750;50.804;8.764;2023-04-03T10:03:08;5.20;56.60
25953;DHT22;13750;50.804;8.764;2023-04-03T10:05:47;5.20;56.30
25953;DHT22;13750;50.804;8.764;2023-04-03T10:10:45;5.30;56.30
25953;DHT22;13750;50.804;8.764;2023-04-03T10:13:21;5.40;55.50
25953;DHT22;13750;50.804;8.764;2023-04-03T10:16:07;5.40;54.50
25953;DHT22;13750;50.804;8.764;2023-04-03T10:19:06;5.40;54.60
25953;DHT22;13750;50.804;8.764;2023-04-03T10:21:55;5.40;54.30
25953;DHT22;13750;50.804;8.764;2023-04-03T10:30:28;5.50;53.40
25953;DHT22;13750;50.804;8.764;2023-04-03T10:33:28;5.50;53.40
25953;DHT22;13750;50.804;8.764;2023-04-03T10:36:07;5.60;53.00
25953;DHT22;13750;50.804;8.764;2023-04-03T10:41:39;5.60;52.00
25953;DHT22;13750;50.804;8.764;2023-04-03T10:44:56;5.50;50.70
25953;DHT22;13750;50.804;8.764;2023-04-03T10:50:20;5.50;51.30
25953;DHT22;13750;50.804;8.764;2023-04-03T10:52:57;5.60;50.70
25953;DHT22;13750;50.804;8.764;2023-04-03T11:08:27;5.70;50.80
25953;DHT22;13750;50.804;8.764;2023-04-03T11:18:25;5.80;49.30
25953;DHT22;13750;50.804;8.764;2023-04-03T11:21:26;5.80;49.30
25953;DHT22;13750;50.804;8.764;2023-04-03T11:23:57;5.80;49.90
25953;DHT22;13750;50.804;8.764;2023-04-03T11:56:36;5.80;48.60
25953;DHT22;13750;50.804;8.764;2023-04-03T12:01:50;5.80;49.00
25953;DHT22;13750;50.804;8.764;2023-04-03T12:04:18;5.90;49.10
25953;DHT22;13750;50.804;8.764;2023-04-03T12:09:28;5.90;49.10
25953;DHT22;13750;50.804;8.764;2023-04-03T12:11:56;5.90;49.00
25953;DHT22;13750;50.804;8.764;2023-04-03T12:14:23;5.90;48.60
25953;DHT22;13750;50.804;8.764;2023-04-03T12:16:55;5.90;49.00
25953;DHT22;13750;50.804;8.764;2023-04-03T12:19:37;5.90;48.60
25953;DHT22;13750;50.804;8.764;2023-04-03T12:22:08;5.90;47.90
25953;DHT22;13750;50.804;8.764;2023-04-03T12:24:38;5.90;47.30
25953;DHT22;13750;50.804;8.764;2023-04-03T12:29:45;5.90;47.60
25953;DHT22;13750;50.804;8.764;2023-04-03T12:32:22;5.90;47.30
25953;DHT22;13750;50.804;8.764;2023-04-03T12:38:01;5.90;47.30
25953;DHT22;13750;50.804;8.764;2023-04-03T12:48:48;6.20;48.70
25953;DHT22;13750;50.804;8.764;2023-04-03T12:51:19;6.20;49.00
25953;DHT22;13750;50.804;8.764;2023-04-03T12:53:46;6.30;48.60
25953;DHT22;13750;50.804;8.764;2023-04-03T12:56:30;6.30;48.40
25953;DHT22;13750;50.804;8.764;2023-04-03T12:59:18;6.40;49.30
25953;DHT22;13750;50.804;8.764;2023-04-03T13:01:56;6.40;48.80
25953;DHT22;13750;50.804;8.764;2023-04-03T13:04:22;6.50;48.40
25953;DHT22;13750;50.804;8.764;2023-04-03T13:06:48;6.50;48.40
25953;DHT22;13750;50.804;8.764;2023-04-03T13:09:28;6.60;48.70
25953;DHT22;13750;50.804;8.764;2023-04-03T13:12:13;6.60;48.50
25953;DHT22;13750;50.804;8.764;2023-04-03T13:14:58;6.60;48.30
25953;DHT22;13750;50.804;8.764;2023-04-03T13:17:29;6.60;47.90
25953;DHT22;13750;50.804;8.764;2023-04-03T13:19:55;6.60;47.60
25953;DHT22;13750;50.804;8.764;2023-04-03T13:22:45;6.60;47.20
25953;DHT22;13750;50.804;8.764;2023-04-03T13:25:14;6.60;46.70
25953;DHT22;13750;50.804;8.764;2023-04-03T13:27:40;6.60;47.20
25953;DHT22;13750;50.804;8.764;2023-04-03T13:32:52;6.60;47.70
25953;DHT22;13750;50.804;8.764;2023-04-03T13:35:37;6.60;47.90
25953;DHT22;13750;50.804;8.764;2023-04-03T13:38:25;6.60;47.60
25953;DHT22;13750;50.804;8.764;2023-04-03T13:41:00;6.70;47.50
25953;DHT22;13750;50.804;8.764;2023-04-03T13:43:37;6.70;47.70
25953;DHT22;13750;50.804;8.764;2023-04-03T13:48:46;6.70;47.10
25953;DHT22;13750;50.804;8.764;2023-04-03T13:53:58;6.80;46.90
25953;DHT22;13750;50.804;8.764;2023-04-03T13:56:37;6.90;47.50
25953;DHT22;13750;50.804;8.764;2023-04-03T14:01:43;6.90;47.50
25953;DHT22;13750;50.804;8.764;2023-04-03T14:04:18;7.00;46.60
25953;DHT22;13750;50.804;8.764;2023-04-03T14:06:44;6.90;46.10
25953;DHT22;13750;50.804;8.764;2023-04-03T14:09:10;7.00;45.90
25953;DHT22;13750;50.804;8.764;2023-04-03T14:11:36;7.00;45.60
25953;DHT22;13750;50.804;8.764;2023-04-03T14:14:11;7.00;45.90
25953;DHT22;13750;50.804;8.764;2023-04-03T14:16:40;7.10;46.00
25953;DHT22;13750;50.804;8.764;2023-04-03T14:19:09;7.20;46.30
25953;DHT22;13750;50.804;8.764;2023-04-03T14:21:39;7.30;45.80
25953;DHT22;13750;50.804;8.764;2023-04-03T14:24:05;7.30;45.20
25953;DHT22;13750;50.804;8.764;2023-04-03T14:26:31;7.40;45.40
25953;DHT22;13750;50.804;8.764;2023-04-03T14:28:57;7.50;45.80
25953;DHT22;13750;50.804;8.764;2023-04-03T14:31:23;7.60;46.20
25953;DHT22;13750;50.804;8.764;2023-04-03T14:33:48;7.60;45.40
25953;DHT22;13750;50.804;8.764;2023-04-03T14:36:17;7.60;44.60
25953;DHT22;13750;50.804;8.764;2023-04-03T14:38:44;7.70;45.00
25953;DHT22;13750;50.804;8.764;2023-04-03T14:41:14;7.70;44.50
25953;DHT22;13750;50.804;8.764;2023-04-03T14:43:41;7.70;44.50
25953;DHT22;13750;50.804;8.764;2023-04-03T14:46:20;7.70;44.50
25953;DHT22;13750;50.804;8.764;2023-04-03T14:48:47;7.90;44.40
25953;DHT22;13750;50.804;8.764;2023-04-03T14:51:14;7.90;44.90
25953;DHT22;13750;50.804;8.764;2023-04-03T14:53:42;8.10;44.70
25953;DHT22;13750;50.804;8.764;2023-04-03T14:56:28;8.00;44.20
25953;DHT22;13750;50.804;8.764;2023-04-03T14:58:59;8.00;44.20
25953;DHT22;13750;50.804;8.764;2023-04-03T15:01:27;7.90;44.30
25953;DHT22;13750;50.804;8.764;2023-04-03T15:03:53;8.00;45.00
25953;DHT22;13750;50.804;8.764;2023-04-03T15:06:19;8.00;45.00
25953;DHT22;13750;50.804;8.764;2023-04-03T15:08:45;8.10;45.00
25953;DHT22;13750;50.804;8.764;2023-04-03T15:11:12;8.10;45.40
25953;DHT22;13750;50.804;8.764;2023-04-03T15:13:38;8.10;44.80
25953;DHT22;13750;50.804;8.764;2023-04-03T15:16:16;8.00;44.40
25953;DHT22;13750;50.804;8.764;2023-04-03T15:18:42;7.90;44.60
25953;DHT22;13750;50.804;8.764;2023-04-03T15:21:07;7.90;44.70
25953;DHT22;13750;50.804;8.764;2023-04-03T15:23:33;7.80;44.40
25953;DHT22;13750;50.804;8.764;2023-04-03T15:25:59;7.80;45.20
25953;DHT22;13750;50.804;8.764;2023-04-03T15:30:56;8.00;45.10
25953;DHT22;13750;50.804;8.764;2023-04-03T15:33:22;8.10;44.70
25953;DHT22;13750;50.804;8.764;2023-04-03T15:35:48;8.20;44.50
25953;DHT22;13750;50.804;8.764;2023-04-03T15:38:16;8.30;44.40
25953;DHT22;13750;50.804;8.764;2023-04-03T15:40:41;8.30;44.20
25953;DHT22;13750;50.804;8.764;2023-04-03T15:43:09;8.30;44.10
25953;DHT22;13750;50.804;8.764;2023-04-03T15:45:36;8.30;44.50
25953;DHT22;13750;50.804;8.764;2023-04-03T15:48:03;8.40;44.50
25953;DHT22;13750;50.804;8.764;2023-04-03T15:50:30;8.40;44.60
25953;DHT22;13750;50.804;8.764;2023-04-03T15:52:56;8.60;44.90
25953;DHT22;13750;50.804;8.764;2023-04-03T15:55:25;8.70;44.40
25953;DHT22;13750;50.804;8.764;2023-04-03T15:57:51;8.70;44.20
25953;DHT22;13750;50.804;8.764;2023-04-03T16:00:17;8.90;44.30
25953;DHT22;13750;50.804;8.764;2023-04-03T16:02:46;9.00;43.80
25953;DHT22;13750;50.804;8.764;2023-04-03T16:05:13;9.10;43.60
25953;DHT22;13750;50.804;8.764;2023-04-03T16:07:41;9.20;43.60
25953;DHT22;13750;50.804;8.764;2023-04-03T16:10:09;9.20;43.10
25953;DHT22;13750;50.804;8.764;2023-04-03T16:12:35;9.30;43.00
25953;DHT22;13750;50.804;8.764;2023-04-03T16:15:02;9.30;42.60
25953;DHT22;13750;50.804;8.764;2023-04-03T16:17:28;9.40;42.10
25953;DHT22;13750;50.804;8.764;2023-04-03T16:19:55;9.40;41.90
25953;DHT22;13750;50.804;8.764;2023-04-03T16:22:24;9.40;41.50
25953;DHT22;13750;50.804;8.764;2023-04-03T16:24:51;9.30;41.60
25953;DHT22;13750;50.804;8.764;2023-04-03T16:27:17;9.20;41.20
25953;DHT22;13750;50.804;8.764;2023-04-03T16:29:43;9.00;41.40
25953;DHT22;13750;50.804;8.764;2023-04-03T16:32:13;8.70;41.30
25953;DHT22;13750;50.804;8.764;2023-04-03T16:34:39;8.50;41.90
25953;DHT22;13750;50.804;8.764;2023-04-03T16:37:09;8.30;42.50
25953;DHT22;13750;50.804;8.764;2023-04-03T16:39:35;8.30;43.00
25953;DHT22;13750;50.804;8.764;2023-04-03T16:42:02;8.30;43.30
25953;DHT22;13750;50.804;8.764;2023-04-03T16:44:28;8.30;43.10
25953;DHT22;13750;50.804;8.764;2023-04-03T16:46:54;8.30;43.20
25953;DHT22;13750;50.804;8.764;2023-04-03T16:49:20;8.30;43.10
25953;DHT22;13750;50.804;8.764;2023-04-03T16:51:48;8.20;43.40
25953;DHT22;13750;50.804;8.764;2023-04-03T16:54:17;8.20;43.70
25953;DHT22;13750;50.804;8.764;2023-04-03T16:56:43;8.20;43.70
25953;DHT22;13750;50.804;8.764;2023-04-03T16:59:09;8.10;43.80
25953;DHT22;13750;50.804;8.764;2023-04-03T17:01:35;8.10;43.90
25953;DHT22;13750;50.804;8.764;2023-04-03T17:04:01;8.00;43.50
25953;DHT22;13750;50.804;8.764;2023-04-03T17:06:27;7.90;43.60
25953;DHT22;13750;50.804;8.764;2023-04-03T17:08:52;7.70;43.70
25953;DHT22;13750;50.804;8.764;2023-04-03T17:11:18;7.60;43.90
25953;DHT22;13750;50.804;8.764;2023-04-03T17:13:44;7.40;44.20
25953;DHT22;13750;50.804;8.764;2023-04-03T17:16:13;7.40;44.30
25953;DHT22;13750;50.804;8.764;2023-04-03T17:18:39;7.30;44.70
25953;DHT22;13750;50.804;8.764;2023-04-03T17:21:05;7.20;45.00
25953;DHT22;13750;50.804;8.764;2023-04-03T17:23:32;7.10;44.90
25953;DHT22;13750;50.804;8.764;2023-04-03T17:26:00;7.10;45.00
25953;DHT22;13750;50.804;8.764;2023-04-03T17:28:26;7.10;45.00
25953;DHT22;13750;50.804;8.764;2023-04-03T17:30:56;7.00;45.20
25953;DHT22;13750;50.804;8.764;2023-04-03T17:33:22;7.00;45.30
25953;DHT22;13750;50.804;8.764;2023-04-03T17:35:48;7.00;45.60
25953;DHT22;13750;50.804;8.764;2023-04-03T17:38:14;6.90;45.70
25953;DHT22;13750;50.804;8.764;2023-04-03T17:40:40;6.90;45.90
25953;DHT22;13750;50.804;8.764;2023-04-03T17:43:10;6.90;46.10
25953;DHT22;13750;50.804;8.764;2023-04-03T17:45:37;6.90;46.30
25953;DHT22;13750;50.804;8.764;2023-04-03T17:48:04;6.90;46.20
25953;DHT22;13750;50.804;8.764;2023-04-03T17:50:30;6.80;46.20
25953;DHT22;13750;50.804;8.764;2023-04-03T17:52:56;6.80;46.10
25953;DHT22;13750;50.804;8.764;2023-04-03T17:55:22;6.70;45.70
25953;DHT22;13750;50.804;8.764;2023-04-03T17:57:48;6.60;45.60